Ralph, Alabama
Current Conditions -  °F | °C
As of 8:53 PM on Monday 22 Dec 2014 (Local Time) from KTCL Reporting Station
Overcast Overcast  
Wind Chill: 13°   Ceiling: 700
Heat Index: 13°   Visibility: 10mi
Dew Point: 12°   Wind: 3mph
Humidity: 93%   Direction: 140°SE
Pressure: 29.77"   Gusts: NA
Location:  33.04°N, 87.77°W
Report Text: KTCL 230253Z AUTO 14003KT 10SM OVC007 13/12 A2977 RMK AO2 SLP079 60000 T01330122 50002
Loading
Personal Weather Stations






























Interactive Weather Map New forecast layout! Learn more

10-Day Weather Forecast

Advertisements
Track Severe Weather on mobile